Time;durP1;ratioP1;P1;durP2;ratioP2;P2;SDS_P1;SDS_P2;PMS_P1;PMS_P2;Temp;Humidity;BMP_temperature;BMP_pressure;BME280_temperature;BME280_humidity;BME280_pressure;Samples;Min_cycle;Max_cycle;Signal;HPM_P1;HPM_P2
2023/01/13 00:02:02;;;;;;;0.38;0.38;;;13.30;63.50;;;12.23;62.32;100121.78;12253107;19;20092;-88
2023/01/13 00:06:06;;;;;;;0.50;0.40;;;13.30;63.70;;;12.21;62.24;100107.16;12255078;19;20010;-88
2023/01/13 00:10:10;;;;;;;0.40;0.40;;;13.30;63.50;;;12.25;62.41;100119.91;12252152;19;20022;-88
2023/01/13 00:14:12;;;;;;;0.52;0.40;;;13.30;63.40;;;12.03;62.24;100083.13;12250597;19;20390;-88
2023/01/13 00:18:14;;;;;;;0.40;0.40;;;13.30;63.40;;;12.35;62.49;100125.31;12250443;19;20031;-88
2023/01/13 00:22:16;;;;;;;0.52;0.52;;;13.30;63.40;;;12.35;62.39;100131.38;12252459;19;20030;-89
2023/01/13 00:26:22;;;;;;;0.73;0.60;;;13.40;63.50;;;12.15;62.44;100092.69;12253981;19;20353;-88
2023/01/13 00:30:24;;;;;;;0.38;0.38;;;13.40;63.40;;;12.38;62.49;100117.22;12252915;19;20043;-88
2023/01/13 00:34:26;;;;;;;0.60;0.60;;;13.40;63.30;;;12.38;62.44;100119.84;12249395;19;20077;-88
2023/01/13 00:38:30;;;;;;;0.50;0.50;;;13.40;63.40;;;12.34;62.42;100119.25;12249991;19;20021;-88
2023/01/13 00:46:52;;;;;;;0.30;0.30;;;13.40;63.20;;;12.35;62.54;100109.59;12250106;19;20015;-88
2023/01/13 00:51:00;;;;;;;0.40;0.40;;;13.40;63.30;;;12.33;62.44;100101.84;12252244;19;20014;-88
2023/01/13 00:55:02;;;;;;;1.80;0.50;;;13.40;63.30;;;12.37;62.48;100108.56;12245786;19;20026;-88
2023/01/13 00:59:03;;;;;;;0.40;0.40;;;13.40;63.10;;;12.31;62.47;100095.91;12250653;19;20020;-88
2023/01/13 01:03:11;;;;;;;0.40;0.40;;;13.40;63.20;;;12.38;62.46;100104.13;12250852;19;20480;-88
2023/01/13 01:07:12;;;;;;;0.40;0.40;;;13.50;63.10;;;12.42;62.47;100110.81;12249908;19;20010;-88
2023/01/13 01:11:22;;;;;;;0.43;0.40;;;13.50;63.10;;;12.28;62.42;100088.25;12252100;19;20027;-88
2023/01/13 01:15:24;;;;;;;0.43;0.43;;;13.50;63.00;;;12.46;62.57;100124.53;12246817;19;20011;-88
2023/01/13 01:19:25;;;;;;;0.40;0.40;;;13.50;62.90;;;12.34;62.51;100102.69;12249840;19;20405;-88
2023/01/13 01:23:28;;;;;;;0.30;0.30;;;13.50;62.90;;;12.10;62.53;100068.66;12247788;19;20016;-88
2023/01/13 01:27:30;;;;;;;0.40;0.40;;;13.50;62.90;;;12.23;62.43;100087.75;12250590;19;20025;-88
2023/01/13 01:31:32;;;;;;;0.40;0.40;;;13.50;62.70;;;12.46;62.43;100114.06;12250039;19;20006;-88
2023/01/13 01:35:39;;;;;;;0.50;0.50;;;13.50;62.80;;;12.28;62.35;100090.03;12247276;19;20022;-88
2023/01/13 01:39:41;;;;;;;0.40;0.40;;;13.60;62.70;;;12.48;62.52;100105.16;12249388;19;20357;-88
2023/01/13 01:44:04;;;;;;;0.50;0.40;;;13.60;62.70;;;12.46;62.41;100095.72;12248394;19;20603;-88
2023/01/13 01:48:08;;;;;;;0.63;0.47;;;13.60;62.50;;;12.51;62.42;100110.16;12252785;19;20018;-89
2023/01/13 01:52:36;;;;;;;0.43;0.43;;;13.60;62.40;;;12.37;62.44;100076.31;12258968;19;20018;-89
2023/01/13 01:56:40;;;;;;;0.40;0.40;;;13.60;62.30;;;12.46;62.47;100095.72;12259891;19;20441;-88
2023/01/13 02:00:42;;;;;;;0.40;0.40;;;13.60;62.10;;;12.56;62.43;100107.22;12261585;19;20015;-89
2023/01/13 02:04:50;;;;;;;0.32;0.32;;;13.60;62.00;;;12.48;62.42;100086.00;12260713;19;20017;-88
2023/01/13 02:08:52;;;;;;;0.40;0.40;;;13.60;62.10;;;12.29;62.41;100048.06;12262790;19;20025;-88
2023/01/13 02:12:59;;;;;;;0.30;0.30;;;13.60;62.00;;;12.55;62.34;100085.41;12257937;19;20023;-88
2023/01/13 02:17:21;;;;;;;0.40;0.40;;;13.60;61.90;;;12.56;62.43;100081.84;12253923;19;20026;-88
2023/01/13 02:22:13;;;;;;;0.30;0.30;;;13.70;61.90;;;12.57;62.29;100095.78;12254272;19;20007;-88
2023/01/13 02:26:35;;;;;;;0.50;0.50;;;13.60;61.70;;;12.57;62.40;100080.88;12250215;19;20044;-89
2023/01/13 02:35:22;;;;;;;0.50;0.50;;;13.70;61.70;;;12.60;62.38;100078.03;12249823;19;20018;-89
2023/01/13 02:39:35;;;;;;;0.30;0.30;;;13.70;61.60;;;12.56;62.46;100060.06;12253646;19;20003;-89
2023/01/13 02:48:05;;;;;;;0.43;0.40;;;13.70;61.40;;;12.60;62.33;100072.81;12247920;19;20006;-88
2023/01/13 02:52:58;;;;;;;0.38;0.38;;;13.70;61.30;;;12.62;62.35;100070.91;12251235;19;20015;-88
2023/01/13 02:57:01;;;;;;;0.40;0.40;;;13.70;61.30;;;12.59;62.19;100062.47;12249346;19;20062;-88
2023/01/13 03:01:02;;;;;;;0.45;0.45;;;13.70;61.20;;;12.68;62.21;100072.25;12251625;19;20018;-88
2023/01/13 03:05:06;;;;;;;0.70;0.70;;;13.70;61.10;;;12.57;62.26;100051.25;12248540;19;20014;-88
2023/01/13 03:09:29;;;;;;;0.40;0.40;;;13.70;61.10;;;12.64;62.30;100062.94;12251578;19;20022;-89
2023/01/13 03:13:52;;;;;;;0.40;0.32;;;13.70;61.00;;;12.70;62.27;100061.66;12249799;19;20030;-88
2023/01/13 03:18:36;;;;;;;0.30;0.30;;;13.80;61.00;;;12.68;62.30;100059.13;12249332;19;20024;-90
2023/01/13 03:23:02;;;;;;;0.68;0.40;;;13.80;60.90;;;12.70;62.34;100067.72;12263635;19;20026;-88
2023/01/13 03:27:12;;;;;;;;;;;13.80;60.90;;;12.62;62.22;100054.38;12264129;19;20015;-89
2023/01/13 03:31:23;;;;;;;0.40;0.40;;;13.80;61.10;;;12.20;62.10;99979.81;12262835;19;20011;-88
2023/01/13 03:35:37;;;;;;;0.20;0.20;;;13.80;60.60;;;12.56;61.89;100023.41;12255520;19;20018;-88
2023/01/13 03:39:47;;;;;;;0.40;0.40;;;13.80;60.60;;;12.59;62.17;100028.41;12263808;19;20022;-88
2023/01/13 03:44:36;;;;;;;0.30;0.30;;;13.80;60.60;;;12.69;62.07;100055.59;12257057;19;20465;-88
2023/01/13 03:48:42;;;;;;;0.32;0.32;;;13.80;60.50;;;12.48;62.26;100021.34;12259195;19;20038;-88
2023/01/13 03:52:59;;;;;;;0.35;0.35;;;13.80;60.60;;;12.44;62.21;100026.91;12259229;19;20014;-88
2023/01/13 03:57:08;;;;;;;0.40;0.40;;;13.80;60.40;;;12.61;62.06;100042.22;12258511;19;20014;-88
2023/01/13 04:01:26;;;;;;;0.35;0.35;;;13.80;60.40;;;12.47;62.19;100014.41;12259700;19;20573;-88
2023/01/13 04:05:28;;;;;;;0.30;0.30;;;13.80;60.40;;;12.38;62.18;100002.84;12253621;19;20010;-89
2023/01/13 04:09:38;;;;;;;0.30;0.30;;;13.80;60.40;;;12.64;62.02;100060.34;12259786;19;20011;-88
2023/01/13 04:13:44;;;;;;;0.30;0.30;;;13.80;60.30;;;12.74;62.02;100060.47;12255443;19;20038;-88
2023/01/13 04:17:45;;;;;;;0.40;0.40;;;13.80;60.20;;;12.61;62.09;100029.97;12257847;19;20022;-88
2023/01/13 04:21:47;;;;;;;0.40;0.40;;;13.80;60.20;;;12.47;62.09;100003.13;12258408;19;20010;-88
2023/01/13 04:25:50;;;;;;;0.30;0.30;;;13.80;60.10;;;12.73;62.10;100051.78;12258998;19;20023;-88
2023/01/13 04:29:52;;;;;;;0.20;0.20;;;13.90;60.20;;;12.61;61.99;100029.97;12258452;19;20023;-88
2023/01/13 04:33:53;;;;;;;0.30;0.30;;;13.80;60.00;;;12.72;62.06;100037.00;12253216;19;20006;-88
2023/01/13 04:37:55;;;;;;;0.30;0.30;;;13.80;60.00;;;12.72;61.99;100044.00;12256091;19;20035;-88
2023/01/13 04:41:57;;;;;;;0.75;0.50;;;13.80;59.90;;;12.74;61.94;100048.19;12257129;19;20028;-88
2023/01/13 04:45:59;;;;;;;0.20;0.20;;;13.80;60.00;;;12.71;62.06;100052.84;12257807;19;20018;-88
2023/01/13 04:50:01;;;;;;;0.40;0.40;;;13.80;60.10;;;12.61;61.96;100039.59;12256891;19;20018;-89
2023/01/13 04:54:03;;;;;;;0.30;0.30;;;13.80;59.90;;;12.37;61.90;99995.13;12254461;19;20022;-88
2023/01/13 04:58:07;;;;;;;0.30;0.30;;;13.80;59.90;;;12.68;61.95;100059.13;12252063;19;20025;-88
2023/01/13 05:02:13;;;;;;;0.40;0.40;;;13.80;59.90;;;12.62;61.91;100049.94;12252845;19;20023;-88
2023/01/13 05:06:15;;;;;;;0.40;0.40;;;13.80;59.80;;;12.68;61.89;100069.63;12253392;19;20081;-88
2023/01/13 05:10:16;;;;;;;0.40;0.40;;;13.70;59.80;;;12.73;61.86;100074.53;12255982;19;20456;-88
2023/01/13 05:18:39;;;;;;;2.42;0.30;;;13.80;59.90;;;12.71;62.00;100076.41;12255285;19;20484;-88
2023/01/13 05:27:01;;;;;;;0.47;0.47;;;13.80;59.90;;;12.76;61.81;100084.75;12254953;19;20029;-88
2023/01/13 05:31:02;;;;;;;0.35;0.35;;;13.80;59.90;;;12.68;61.83;100051.28;12252129;19;20014;-88
2023/01/13 05:35:05;;;;;;;0.30;0.30;;;13.80;60.00;;;12.74;61.87;100058.66;12245841;19;20006;-88
2023/01/13 05:39:06;;;;;;;0.30;0.30;;;13.80;59.90;;;12.80;61.82;100060.03;12251284;19;20025;-88
2023/01/13 05:43:19;;;;;;;0.35;0.35;;;13.90;59.90;;;12.45;61.70;100007.63;12250889;19;20027;-88
2023/01/13 05:47:20;;;;;;;0.20;0.20;;;13.80;59.80;;;12.69;61.91;100049.50;12253710;19;20011;-88
2023/01/13 05:51:25;;;;;;;0.30;0.30;;;13.80;59.80;;;12.61;61.70;100042.22;12252180;19;20406;-89
2023/01/13 05:55:26;;;;;;;0.43;0.43;;;13.90;59.90;;;12.43;61.74;100014.78;12252760;19;20011;-89
2023/01/13 05:59:28;;;;;;;0.38;0.38;;;13.90;59.90;;;12.81;61.76;100074.78;12255580;19;20028;-89
2023/01/13 06:03:31;;;;;;;0.40;0.40;;;13.90;59.90;;;12.76;61.83;100077.72;12252652;19;20026;-89
2023/01/13 06:07:33;;;;;;;0.30;0.30;;;13.90;59.80;;;12.60;61.79;100059.69;12255030;19;20039;-88
2023/01/13 06:11:34;;;;;;;0.52;0.30;;;13.90;59.90;;;12.70;61.79;100065.09;12253249;19;20014;-89
2023/01/13 06:15:36;;;;;;;0.45;0.40;;;13.90;59.80;;;12.84;61.71;100088.47;12247942;19;20071;-88
2023/01/13 06:19:38;;;;;;;0.30;0.30;;;13.90;59.80;;;12.72;61.69;100065.84;12255343;19;20014;-88
2023/01/13 06:23:39;;;;;;;0.30;0.30;;;13.90;59.80;;;12.75;61.79;100081.31;12251095;19;20416;-88
2023/01/13 06:27:41;;;;;;;0.30;0.30;;;13.90;59.70;;;12.72;61.74;100081.56;12252313;19;20025;-87
2023/01/13 06:31:43;;;;;;;0.40;0.40;;;13.90;59.70;;;12.72;61.73;100085.94;12251164;19;20492;-89
2023/01/13 06:35:54;;;;;;;0.30;0.30;;;13.90;59.70;;;12.75;61.74;100086.56;12250588;19;20022;-88
2023/01/13 06:39:59;;;;;;;0.40;0.40;;;13.90;59.70;;;12.70;61.56;100096.53;12250999;19;20007;-88
2023/01/13 06:44:01;;;;;;;0.30;0.30;;;13.90;59.70;;;12.76;61.79;100113.59;12246995;19;20485;-89
2023/01/13 06:48:03;;;;;;;0.40;0.30;;;13.90;59.70;;;12.77;61.87;100102.16;12253087;19;20006;-90
2023/01/13 06:52:05;;;;;;;0.20;0.20;;;13.90;59.80;;;12.68;61.81;100085.34;12249869;19;20034;-88
2023/01/13 06:56:07;;;;;;;0.30;0.30;;;13.90;59.80;;;12.86;61.60;100119.00;12262816;19;20007;-89
2023/01/13 07:00:12;;;;;;;0.50;0.50;;;13.90;59.80;;;12.78;61.70;100109.91;12259515;19;20018;-89
2023/01/13 07:04:14;;;;;;;0.40;0.40;;;13.90;59.80;;;12.87;61.64;100089.22;12260720;19;20423;-91
2023/01/13 07:08:16;;;;;;;0.65;0.40;;;13.90;59.80;;;12.55;61.65;100061.00;12264785;19;20018;-88
2023/01/13 07:12:18;;;;;;;0.68;0.65;;;13.90;59.90;;;12.74;61.75;100100.59;12259801;19;20474;-88
2023/01/13 07:16:19;;;;;;;0.88;0.40;;;13.90;59.90;;;12.73;61.64;100106.78;12260612;19;20018;-88
2023/01/13 07:20:21;;;;;;;0.30;0.30;;;13.90;59.90;;;12.79;61.72;100114.19;12258821;19;20680;-89
2023/01/13 07:24:23;;;;;;;0.40;0.40;;;13.90;59.90;;;12.70;61.64;100109.63;12256082;19;20074;-89
2023/01/13 07:28:27;;;;;;;0.40;0.40;;;13.90;59.90;;;12.70;61.80;100103.56;12259980;19;20465;-89
2023/01/13 07:32:33;;;;;;;0.38;0.38;;;13.90;60.00;;;12.76;61.63;100096.06;12260198;19;20014;-90
2023/01/13 07:36:35;;;;;;;0.55;0.55;;;13.90;60.00;;;12.54;61.70;100075.88;12260123;19;20010;-90
2023/01/13 07:40:39;;;;;;;0.40;0.40;;;13.90;59.90;;;12.72;61.73;100102.50;12260981;19;20377;-89
2023/01/13 07:44:40;;;;;;;1.45;0.70;;;13.80;59.70;;;12.78;61.64;100096.81;12257067;19;20338;-88
2023/01/13 07:48:42;;;;;;;0.40;0.40;;;13.80;59.70;;;12.50;61.51;100060.50;12260864;19;20018;-89
2023/01/13 07:52:44;;;;;;;2.42;0.40;;;13.80;59.50;;;12.70;61.51;100093.91;12257723;19;20031;-88
2023/01/13 07:56:46;;;;;;;0.30;0.30;;;13.80;59.50;;;12.72;61.68;100102.50;12257764;19;20515;-89
2023/01/13 08:00:47;;;;;;;1.00;0.30;;;13.70;59.40;;;12.66;61.48;100102.94;12262740;19;20027;-89
2023/01/13 08:04:49;;;;;;;0.57;0.45;;;13.70;59.30;;;12.49;61.48;100085.84;12253790;19;20011;-89
2023/01/13 08:08:51;;;;;;;0.43;0.38;;;13.70;59.30;;;12.56;61.57;100107.22;12258907;19;20023;-89
2023/01/13 08:17:13;;;;;;;0.43;0.43;;;13.60;59.30;;;12.48;61.51;100133.97;12256454;19;20010;-89
2023/01/13 08:21:15;;;;;;;0.40;0.40;;;13.60;59.30;;;12.53;61.58;100154.56;12258184;19;20485;-89
2023/01/13 08:25:17;;;;;;;0.30;0.30;;;13.60;59.30;;;12.50;61.44;100153.03;12253305;19;20010;-83
2023/01/13 08:29:18;;;;;;;0.47;0.47;;;13.60;59.40;;;12.52;61.46;100158.13;12259216;19;20050;-84
2023/01/13 08:33:20;;;;;;;0.40;0.40;;;13.60;59.40;;;12.42;61.54;100146.66;12256437;19;20019;-84
2023/01/13 08:37:22;;;;;;;0.45;0.45;;;13.50;59.50;;;12.39;61.47;100155.56;12257461;19;20010;-84
2023/01/13 08:45:45;;;;;;;0.70;0.30;;;13.50;59.60;;;12.36;61.46;100148.75;12261388;19;20859;-83
2023/01/13 08:49:47;;;;;;;0.70;0.40;;;13.50;59.70;;;12.29;61.48;100116.13;12260495;19;20598;-84
2023/01/13 08:53:49;;;;;;;0.60;0.60;;;13.50;59.80;;;12.45;61.66;100154.28;12255358;19;20462;-84
2023/01/13 08:57:51;;;;;;;0.43;0.43;;;13.50;59.80;;;12.41;61.54;100169.38;12255573;19;20048;-84
2023/01/13 09:01:52;;;;;;;1.20;0.50;;;13.50;59.80;;;12.38;61.48;100178.28;12257973;19;20034;-84
2023/01/13 09:05:54;;;;;;;0.52;0.52;;;13.50;59.80;;;12.43;61.65;100179.75;12256628;19;20019;-84
2023/01/13 09:09:56;;;;;;;0.90;0.52;;;13.50;59.80;;;12.39;61.49;100177.38;12256485;19;20014;-84
2023/01/13 09:13:58;;;;;;;0.50;0.50;;;13.60;59.70;;;12.22;61.52;100161.16;12252140;19;20027;-85
2023/01/13 09:18:01;;;;;;;0.45;0.45;;;13.50;59.70;;;12.44;61.53;100186.66;12255330;19;20029;-83
2023/01/13 09:22:03;;;;;;;0.50;0.50;;;13.50;59.70;;;12.45;61.45;100130.69;12258184;19;20056;-83
2023/01/13 09:26:05;;;;;;;0.60;0.50;;;13.50;59.70;;;12.35;61.54;100089.50;12254687;19;20116;-84
2023/01/13 09:30:08;;;;;;;0.88;0.60;;;13.50;59.50;;;12.45;61.51;100094.03;12253033;19;20009;-83
2023/01/13 09:38:39;;;;;;;0.57;0.50;;;13.40;59.30;;;12.40;61.62;100137.13;12253186;19;20014;-84
2023/01/13 09:47:47;;;;;;;0.40;0.40;;;13.40;59.40;;;12.32;61.45;100154.34;12256501;19;20477;-84
2023/01/13 09:52:06;;;;;;;0.50;0.50;;;13.40;59.50;;;12.29;61.43;100144.91;12256681;19;20012;-84
2023/01/13 09:56:11;;;;;;;0.40;0.40;;;13.40;59.40;;;12.33;61.62;100159.44;12251166;19;20018;-83
2023/01/13 10:00:22;;;;;;;0.50;0.50;;;13.30;59.40;;;12.22;61.51;100138.44;12254942;19;20003;-84
2023/01/13 10:04:25;;;;;;;0.40;0.40;;;13.40;59.50;;;12.25;61.37;100142.63;12249926;19;20463;-84
2023/01/13 10:08:43;;;;;;;0.68;0.40;;;13.50;59.40;;;12.24;61.41;100151.44;12253248;19;20011;-84
2023/01/13 10:17:24;;;;;;;1.13;0.50;;;13.30;58.90;;;12.18;61.45;100147.47;12252546;19;20018;-85
2023/01/13 10:21:57;;;;;;;0.50;0.50;;;13.40;59.00;;;12.27;61.20;100175.59;12249734;19;20029;-84
2023/01/13 10:26:25;;;;;;;0.90;0.50;;;13.30;58.50;;;12.26;61.42;100167.84;12252508;19;20018;-84
2023/01/13 10:30:41;;;;;;;0.43;0.43;;;13.30;58.80;;;12.23;61.25;100162.84;12262069;19;20022;-84
2023/01/13 10:34:50;;;;;;;1.75;0.50;;;13.30;58.70;;;12.13;61.34;100157.44;12259676;19;20461;-84
2023/01/13 10:38:56;;;;;;;0.57;0.40;;;13.30;58.70;;;12.20;61.29;100169.13;12263879;19;20586;-84
2023/01/13 10:43:05;;;;;;;0.50;0.50;;;13.30;58.70;;;12.17;61.25;100167.56;12261754;19;20462;-84
2023/01/13 10:47:27;;;;;;;0.57;0.43;;;13.40;58.70;;;12.15;61.12;100168.59;12264861;19;20014;-84
2023/01/13 10:51:38;;;;;;;0.38;0.38;;;13.20;58.40;;;12.16;61.33;100175.53;12264186;19;20010;-84
2023/01/13 10:55:40;;;;;;;0.55;0.55;;;13.20;58.60;;;12.08;61.23;100154.31;12265952;19;20031;-83
2023/01/13 10:59:42;;;;;;;0.50;0.50;;;13.20;58.60;;;12.10;61.18;100160.28;12263170;19;20500;-84
2023/01/13 11:03:46;;;;;;;0.40;0.40;;;13.20;58.50;;;12.05;61.16;100157.13;12260958;19;20380;-84
2023/01/13 11:07:56;;;;;;;0.40;0.40;;;13.20;58.60;;;12.06;61.24;100164.88;12266024;19;20450;-84
2023/01/13 11:11:59;;;;;;;0.80;0.63;;;13.20;58.50;;;12.08;61.28;100162.16;12259347;19;20018;-85
2023/01/13 11:16:15;;;;;;;0.60;0.50;;;13.20;58.50;;;12.10;61.06;100162.88;12257532;19;20035;-84
2023/01/13 11:20:32;;;;;;;1.02;0.50;;;13.20;58.60;;;12.08;61.24;100170.00;12259128;19;20014;-85
2023/01/13 11:25:02;;;;;;;0.50;0.50;;;13.20;58.70;;;12.07;61.10;100173.53;12256912;19;20014;-85
2023/01/13 11:29:37;;;;;;;0.52;0.52;;;13.20;58.50;;;12.13;61.20;100181.00;12257513;19;20010;-84
2023/01/13 11:33:58;;;;;;;0.50;0.50;;;13.20;58.80;;;12.16;61.17;100180.78;12257017;19;20355;-84
2023/01/13 11:38:31;;;;;;;0.57;0.50;;;13.20;58.50;;;12.12;61.25;100171.44;12258400;19;20017;-84
2023/01/13 11:42:45;;;;;;;0.52;0.52;;;13.20;58.20;;;12.14;61.04;100173.00;12255795;19;20014;-84
2023/01/13 11:46:49;;;;;;;0.57;0.57;;;13.20;58.10;;;12.12;61.28;100166.22;12259203;19;20070;-84
2023/01/13 11:51:03;;;;;;;0.80;0.80;;;13.30;58.20;;;12.16;61.10;100171.13;12259947;19;20019;-84
2023/01/13 11:55:54;;;;;;;0.70;0.70;;;13.30;58.10;;;12.18;61.05;100181.50;12256400;19;20006;-85
2023/01/13 12:00:44;;;;;;;0.65;0.50;;;13.30;57.90;;;12.17;60.88;100183.25;12260077;19;20018;-84
2023/01/13 12:05:12;;;;;;;0.82;0.40;;;13.30;57.90;;;12.14;60.95;100170.41;12256725;19;20019;-83
2023/01/13 12:09:56;;;;;;;1.88;0.50;;;13.30;57.80;;;12.23;60.91;100186.41;12259080;19;20492;-84
2023/01/13 12:14:05;;;;;;;0.50;0.50;;;13.30;57.70;;;12.26;60.95;100181.78;12255329;19;20015;-84
2023/01/13 12:18:37;;;;;;;2.20;0.60;;;13.30;57.80;;;12.27;60.94;100178.22;12256444;19;20445;-83
2023/01/13 12:22:41;;;;;;;0.85;0.45;;;13.40;57.90;;;12.30;60.88;100172.75;12257321;19;20338;-84
2023/01/13 12:26:53;;;;;;;1.08;0.50;;;13.40;57.60;;;12.33;60.80;100171.72;12258088;19;20019;-83
2023/01/13 12:31:00;;;;;;;0.50;0.50;;;13.40;57.70;;;12.24;60.91;100159.28;12256614;19;20489;-83
2023/01/13 12:35:25;;;;;;;0.82;0.50;;;13.40;57.70;;;12.37;60.75;100176.63;12252837;19;20030;-83
2023/01/13 12:39:42;;;;;;;1.15;0.50;;;13.40;57.20;;;12.38;60.62;100186.16;12253388;19;20018;-82
2023/01/13 12:48:56;;;;;;;0.47;0.47;;;13.50;57.30;;;12.40;60.53;100191.28;12255044;19;20469;-83
2023/01/13 12:53:32;;;;;;;0.80;0.60;;;13.50;57.00;;;12.29;60.64;100173.72;12255077;19;20552;-83
2023/01/13 12:57:36;;;;;;;1.25;1.00;;;13.50;57.00;;;12.38;60.59;100183.53;12254554;19;20157;-83
2023/01/13 13:01:37;;;;;;;0.82;0.70;;;13.50;56.80;;;12.44;60.49;100197.13;12254692;19;20464;-83
2023/01/13 13:05:54;;;;;;;0.88;0.63;;;13.50;56.80;;;12.42;60.25;100207.69;12254364;19;20007;-83
2023/01/13 13:10:23;;;;;;;0.50;0.50;;;13.60;56.70;;;12.41;60.55;100190.31;12255373;19;20010;-83
2023/01/13 13:14:40;;;;;;;1.17;1.08;;;13.70;56.70;;;12.52;60.37;100210.50;12253330;19;20002;-84
2023/01/13 13:18:41;;;;;;;0.77;0.70;;;13.60;56.30;;;12.54;60.42;100208.63;12258014;19;20017;-83
2023/01/13 13:22:49;;;;;;;1.42;0.70;;;13.70;56.20;;;12.51;60.40;100214.09;12256562;19;20011;-83
2023/01/13 13:26:50;;;;;;;2.63;0.57;;;13.60;56.50;;;12.46;60.16;100200.47;12255794;19;20014;-83
2023/01/13 13:31:13;;;;;;;1.33;0.65;;;13.70;56.40;;;12.50;60.17;100209.78;12253004;19;20472;-82
2023/01/13 13:35:50;;;;;;;1.50;0.52;;;13.70;55.80;;;12.54;60.09;100219.09;12252018;19;20025;-83
2023/01/13 13:48:55;;;;;;;0.68;0.68;;;13.60;56.10;;;12.47;60.04;100213.44;12253820;19;20011;-82
2023/01/13 13:53:06;;;;;;;2.78;0.70;;;13.60;56.10;;;12.50;59.98;100234.22;12253754;19;20015;-84
2023/01/13 13:57:33;;;;;;;1.02;0.68;;;13.70;56.00;;;12.49;59.81;100232.50;12252762;19;20006;-83
2023/01/13 14:01:39;;;;;;;2.92;0.80;;;13.60;56.00;;;12.55;59.97;100236.47;12253063;19;20074;-83
2023/01/13 14:05:54;;;;;;;2.33;0.90;;;13.60;56.40;;;12.42;59.86;100219.97;12253735;19;20025;-83
2023/01/13 14:09:57;;;;;;;1.70;0.80;;;13.70;55.80;;;12.43;59.83;100224.28;12254463;19;20014;-83
2023/01/13 14:14:13;;;;;;;1.38;0.60;;;13.70;55.90;;;12.45;59.63;100223.22;12252274;19;20011;-83
2023/01/13 14:18:19;;;;;;;0.75;0.50;;;13.60;55.50;;;12.24;59.70;100181.06;12248785;19;20026;-83
2023/01/13 14:22:21;;;;;;;4.05;0.60;;;13.60;55.90;;;12.49;59.78;100226.44;12253535;19;20019;-83
2023/01/13 14:26:30;;;;;;;0.77;0.60;;;13.70;56.00;;;12.39;59.58;100219.25;12252285;19;20006;-83
2023/01/13 14:30:32;;;;;;;1.77;0.88;;;13.60;55.50;;;12.48;59.52;100238.72;12255626;19;20465;-83
2023/01/13 14:34:35;;;;;;;1.52;0.70;;;13.60;55.30;;;12.35;59.41;100235.28;12246575;19;20590;-83
2023/01/13 14:38:37;;;;;;;1.83;1.00;;;13.60;55.30;;;12.11;59.36;100201.19;12249570;19;20033;-83
2023/01/13 14:42:39;;;;;;;1.55;0.70;;;13.50;54.90;;;12.34;59.35;100252.78;12254131;19;20017;-83
2023/01/13 14:46:44;;;;;;;0.80;0.65;;;13.50;55.30;;;12.36;59.54;100247.41;12253387;19;20010;-83
2023/01/13 14:50:45;;;;;;;1.20;0.60;;;13.40;55.10;;;12.36;59.33;100257.91;12253539;19;20011;-83
2023/01/13 14:55:08;;;;;;;1.08;0.70;;;13.50;55.40;;;12.35;59.30;100261.47;12249331;19;20123;-83
2023/01/13 14:59:33;;;;;;;2.25;0.90;;;13.40;55.30;;;12.31;59.21;100255.63;12244787;19;20063;-82
2023/01/13 15:03:40;;;;;;;2.67;0.93;;;13.40;55.30;;;12.28;59.42;100253.19;12250590;19;20020;-82
2023/01/13 15:08:11;;;;;;;1.38;0.50;;;13.40;55.30;;;12.27;59.07;100256.75;12251404;19;20018;-82
2023/01/13 15:12:27;;;;;;;1.52;0.70;;;13.40;55.00;;;12.21;59.20;100246.72;12250247;19;20011;-83
2023/01/13 15:16:30;;;;;;;1.52;0.77;;;13.40;55.20;;;12.16;59.07;100251.44;12261037;19;20335;-83
2023/01/13 15:20:32;;;;;;;2.83;1.35;;;13.30;55.00;;;12.22;59.00;100269.34;12263158;19;20014;-83
2023/01/13 15:24:33;;;;;;;1.83;0.88;;;13.30;55.20;;;12.13;59.06;100268.19;12254445;19;20014;-83
2023/01/13 15:28:36;;;;;;;1.85;1.20;;;13.30;55.00;;;12.16;58.96;100277.63;12260996;19;20014;-83
2023/01/13 15:32:38;;;;;;;3.83;1.35;;;13.30;55.10;;;12.09;59.07;100265.88;12259997;19;20033;-82
2023/01/13 15:36:39;;;;;;;2.10;1.15;;;13.20;55.00;;;12.01;58.97;100260.34;12261296;19;20010;-82
2023/01/13 15:40:42;;;;;;;3.55;1.20;;;13.20;55.10;;;12.02;58.94;100259.41;12263127;19;20024;-83
2023/01/13 15:49:19;;;;;;;2.28;1.50;;;13.20;54.90;;;11.91;58.69;100266.22;12265974;19;20035;-83
2023/01/13 15:53:23;;;;;;;2.50;1.20;;;13.10;54.60;;;11.91;58.84;100268.84;12260172;19;20747;-83
2023/01/13 15:57:31;;;;;;;3.13;1.23;;;13.20;54.80;;;11.91;58.74;100284.53;12260526;19;20014;-83
2023/01/13 16:01:33;;;;;;;3.17;1.00;;;13.00;54.20;;;11.71;58.57;100257.06;12260763;19;20018;-83
2023/01/13 16:05:34;;;;;;;2.33;1.00;;;13.00;54.70;;;11.83;58.49;100296.44;12259147;19;20830;-83
2023/01/13 16:09:36;;;;;;;2.05;1.20;;;12.90;54.70;;;11.82;58.48;100305.19;12260087;19;20378;-82
2023/01/13 16:13:37;;;;;;;2.58;1.10;;;13.00;54.80;;;11.78;58.49;100309.81;12256715;19;20082;-83
2023/01/13 16:17:40;;;;;;;1.65;1.23;;;12.80;54.40;;;11.68;58.57;100314.81;12256414;19;20019;-82
2023/01/13 16:21:44;;;;;;;2.78;1.17;;;12.80;54.40;;;11.65;58.62;100315.00;12256198;19;20018;-84
2023/01/13 16:25:47;;;;;;;0.80;0.73;;;12.80;54.60;;;11.66;58.38;100323.69;12259598;19;20481;-87
2023/01/13 16:29:51;;;;;;;2.25;0.80;;;12.70;54.90;;;11.56;58.42;100314.78;12253860;19;20011;-86
2023/01/13 16:33:53;;;;;;;1.10;0.90;;;12.70;54.90;;;11.56;58.54;100325.22;12255526;19;20034;-84
2023/01/13 16:37:57;;;;;;;1.23;1.00;;;12.60;54.90;;;11.54;58.44;100327.13;12253148;19;20039;-84
2023/01/13 16:41:58;;;;;;;1.23;0.90;;;12.60;55.20;;;11.29;58.51;100294.75;12252665;19;20007;-84
2023/01/13 16:46:00;;;;;;;1.65;1.00;;;12.60;55.20;;;11.26;58.55;100303.63;12255467;19;20006;-84
2023/01/13 16:50:02;;;;;;;1.45;1.20;;;12.60;55.40;;;11.29;58.42;100315.66;12255041;19;20025;-86
2023/01/13 16:54:04;;;;;;;1.35;0.95;;;12.60;55.30;;;11.20;58.61;100309.22;12255793;19;20020;-85
2023/01/13 16:58:15;;;;;;;1.20;1.10;;;12.60;55.60;;;11.50;58.54;100370.94;12256710;19;20346;-85
2023/01/13 17:02:17;;;;;;;1.25;0.75;;;12.70;55.90;;;11.45;58.46;100373.88;12258589;19;20022;-85
2023/01/13 17:06:29;;;;;;;3.50;1.88;;;12.60;56.10;;;11.37;58.69;100378.75;12254404;19;20022;-85
2023/01/13 17:10:30;;;;;;;3.45;1.52;;;12.50;56.20;;;11.42;58.63;100387.13;12251276;19;20024;-85
2023/01/13 17:14:32;;;;;;;3.15;1.55;;;12.50;56.30;;;11.25;58.71;100369.06;12250977;19;20002;-85
2023/01/13 17:18:34;;;;;;;1.65;1.17;;;12.40;56.40;;;11.15;58.66;100352.28;12251408;19;20014;-85
2023/01/13 17:22:35;;;;;;;0.70;0.70;;;12.40;56.50;;;11.19;58.84;100372.91;12251581;19;20011;-85
2023/01/13 17:26:45;;;;;;;1.08;0.95;;;12.40;56.60;;;11.22;58.90;100384.94;12255116;19;20019;-85
2023/01/13 17:30:47;;;;;;;2.08;1.40;;;12.30;56.50;;;11.21;58.90;100385.88;12256074;19;20010;-85
2023/01/13 17:34:50;;;;;;;1.98;1.15;;;12.30;56.50;;;10.83;58.70;100342.09;12253589;19;20010;-86
2023/01/13 17:38:52;;;;;;;1.55;1.05;;;12.30;56.60;;;11.05;58.99;100380.78;12250522;19;20429;-84
2023/01/13 17:42:56;;;;;;;2.08;1.23;;;12.20;56.50;;;11.17;58.87;100413.13;12250466;19;20376;-86
2023/01/13 17:46:57;;;;;;;1.40;1.00;;;12.20;56.50;;;11.17;59.05;100415.75;12254002;19;20014;-85
2023/01/13 17:50:59;;;;;;;2.17;0.90;;;12.20;56.60;;;11.15;58.83;100417.63;12254749;19;20018;-85
2023/01/13 17:55:00;;;;;;;1.48;1.35;;;12.20;56.60;;;11.04;58.97;100402.59;12252041;19;20086;-85
2023/01/13 17:59:02;;;;;;;1.92;0.90;;;12.20;56.70;;;10.87;59.02;100368.88;12250122;19;20018;-85
2023/01/13 18:03:04;;;;;;;0.93;0.80;;;12.20;56.60;;;10.99;58.82;100396.81;12253096;19;20010;-85